createdAt,value
2023-03-21T00:00:12.082Z,6.22
2023-03-21T00:01:11.002Z,6.17
2023-03-21T00:02:10.991Z,6.12
2023-03-21T00:03:10.978Z,6.08
2023-03-21T00:04:11.050Z,6.01
2023-03-21T00:05:15.732Z,5.97
2023-03-21T00:06:10.933Z,5.97
2023-03-21T00:07:10.924Z,5.89
2023-03-21T00:08:10.897Z,5.86
2023-03-21T00:09:10.889Z,5.82
2023-03-21T00:10:16.663Z,5.80
2023-03-21T00:11:11.888Z,5.80
2023-03-21T00:12:10.854Z,5.79
2023-03-21T00:13:10.837Z,5.75
2023-03-21T00:14:10.831Z,5.75
2023-03-21T00:15:10.814Z,5.75
2023-03-21T00:16:12.774Z,5.72
2023-03-21T00:17:11.816Z,5.72
2023-03-21T00:18:10.769Z,5.71
2023-03-21T00:19:10.763Z,5.66
2023-03-21T00:20:10.745Z,5.64
2023-03-21T00:21:38.411Z,5.68
2023-03-21T00:22:11.744Z,5.62
2023-03-21T00:23:10.712Z,5.64
2023-03-21T00:24:10.698Z,5.68
2023-03-21T00:25:10.716Z,5.62
2023-03-21T00:26:10.726Z,5.64
2023-03-21T00:27:38.368Z,5.56
2023-03-21T00:28:11.668Z,5.51
2023-03-21T00:29:10.635Z,5.50
2023-03-21T00:30:10.620Z,5.46
2023-03-21T00:31:10.620Z,5.39
2023-03-21T00:32:10.594Z,5.36
2023-03-21T00:33:22.095Z,5.33
2023-03-21T00:35:47.997Z,5.32
2023-03-21T00:36:12.146Z,5.29
2023-03-21T00:37:10.524Z,5.28
2023-03-21T00:38:10.528Z,5.23
2023-03-21T00:39:10.495Z,5.18
2023-03-21T00:40:16.403Z,5.17
2023-03-21T00:41:21.327Z,5.14
2023-03-21T00:42:11.520Z,5.15
2023-03-21T00:43:10.454Z,5.17
2023-03-21T00:44:10.437Z,5.17
2023-03-21T00:45:10.421Z,5.14
2023-03-21T00:46:10.445Z,5.12
2023-03-21T00:47:10.481Z,5.11
2023-03-21T00:48:10.497Z,5.10
2023-03-21T00:49:10.370Z,5.12
2023-03-21T00:50:10.359Z,5.08
2023-03-21T00:51:10.349Z,5.11
2023-03-21T00:52:20.352Z,5.12
2023-03-21T00:53:11.359Z,5.11
2023-03-21T00:54:10.305Z,5.07
2023-03-21T00:55:10.299Z,5.05
2023-03-21T00:56:10.277Z,5.08
2023-03-21T00:57:10.265Z,5.07
2023-03-21T00:58:10.284Z,5.02
2023-03-21T00:59:10.242Z,5.02
2023-03-21T01:00:10.286Z,5.02
2023-03-21T01:01:10.261Z,4.99
2023-03-21T01:02:10.250Z,4.97
2023-03-21T01:03:23.195Z,4.94
2023-03-21T01:04:11.202Z,4.92
2023-03-21T01:05:10.163Z,4.97
2023-03-21T01:06:10.152Z,4.96
2023-03-21T01:07:10.147Z,4.97
2023-03-21T01:08:23.783Z,4.99
2023-03-21T01:09:11.161Z,4.97
2023-03-21T01:10:10.097Z,4.97
2023-03-21T01:11:10.084Z,4.94
2023-03-21T01:12:10.079Z,4.93
2023-03-21T01:13:10.057Z,4.92
2023-03-21T01:14:22.114Z,4.92
2023-03-21T01:15:11.075Z,4.87
2023-03-21T01:16:10.089Z,4.82
2023-03-21T01:17:10.022Z,4.75
2023-03-21T01:18:10.004Z,4.70
2023-03-21T01:19:22.121Z,4.67
2023-03-21T01:20:11.011Z,4.62
2023-03-21T01:21:09.967Z,4.58
2023-03-21T01:22:09.959Z,4.56
2023-03-21T01:23:09.943Z,4.53
2023-03-21T01:24:09.927Z,4.53
2023-03-21T01:25:22.014Z,4.53
2023-03-21T01:26:09.907Z,4.56
2023-03-21T01:27:09.888Z,4.53
2023-03-21T01:28:09.877Z,4.55
2023-03-21T01:29:09.875Z,4.56
2023-03-21T01:30:19.139Z,4.59
2023-03-21T01:31:10.934Z,4.59
2023-03-21T01:32:09.826Z,4.60
2023-03-21T01:33:09.822Z,4.63
2023-03-21T01:34:09.804Z,4.68
2023-03-21T01:35:09.796Z,4.68
2023-03-21T01:36:13.017Z,4.71
2023-03-21T01:37:09.760Z,4.74
2023-03-21T01:38:09.741Z,4.77
2023-03-21T01:39:09.739Z,4.80
2023-03-21T01:40:09.722Z,4.84
2023-03-21T01:41:19.245Z,4.86
2023-03-21T01:42:10.720Z,4.84
2023-03-21T01:43:09.682Z,4.80
2023-03-21T01:44:09.672Z,4.80
2023-03-21T01:45:09.650Z,4.78
2023-03-21T01:46:09.791Z,4.74
2023-03-21T01:47:11.880Z,4.74
2023-03-21T01:48:09.780Z,4.71
2023-03-21T01:49:09.661Z,4.73
2023-03-21T01:50:09.684Z,4.75
2023-03-21T01:51:09.574Z,4.80
2023-03-21T01:52:15.338Z,4.82
2023-03-21T01:53:09.554Z,4.80
2023-03-21T01:54:09.542Z,4.80
2023-03-21T01:55:09.521Z,4.80
2023-03-21T01:56:09.517Z,4.84
2023-03-21T01:57:09.502Z,4.89
2023-03-21T01:58:09.587Z,4.89
2023-03-21T01:59:09.469Z,4.90
2023-03-21T02:00:09.467Z,4.87
2023-03-21T02:01:09.493Z,4.89
2023-03-21T02:02:09.465Z,4.92
2023-03-21T02:03:15.331Z,4.94
2023-03-21T02:04:10.508Z,4.97
2023-03-21T02:05:09.406Z,4.99
2023-03-21T02:06:09.401Z,5.00
2023-03-21T02:07:09.375Z,5.02
2023-03-21T02:08:09.364Z,5.07
2023-03-21T02:09:09.348Z,5.08
2023-03-21T02:10:09.330Z,5.07
2023-03-21T02:11:09.340Z,5.08
2023-03-21T02:12:09.307Z,5.08
2023-03-21T02:13:09.345Z,5.02
2023-03-21T02:14:10.105Z,4.94
2023-03-21T02:15:09.275Z,4.86
2023-03-21T02:16:09.277Z,4.75
2023-03-21T02:17:09.255Z,4.70
2023-03-21T02:18:09.252Z,4.66
2023-03-21T02:19:09.217Z,4.63
2023-03-21T02:20:09.222Z,4.58
2023-03-21T02:21:09.193Z,4.55
2023-03-21T02:22:09.187Z,4.53
2023-03-21T02:23:09.166Z,4.55
2023-03-21T02:24:09.160Z,4.58
2023-03-21T02:25:21.224Z,4.56
2023-03-21T02:26:10.160Z,4.58
2023-03-21T02:27:09.123Z,4.59
2023-03-21T02:28:09.110Z,4.60
2023-03-21T02:29:09.126Z,4.60
2023-03-21T02:30:09.922Z,4.58
2023-03-21T02:31:09.093Z,4.56
2023-03-21T02:32:18.222Z,4.60
2023-03-21T02:33:10.077Z,4.63
2023-03-21T02:34:09.050Z,4.66
2023-03-21T02:35:09.021Z,4.73
2023-03-21T02:36:14.178Z,4.73
2023-03-21T02:37:08.994Z,4.68
2023-03-21T02:38:08.979Z,4.67
2023-03-21T02:39:08.979Z,4.66
2023-03-21T02:40:08.950Z,4.71
2023-03-21T02:41:17.989Z,4.71
2023-03-21T02:42:10.002Z,4.73
2023-03-21T02:43:16.985Z,4.75
2023-03-21T02:44:09.945Z,4.75
2023-03-21T02:45:08.894Z,4.77
2023-03-21T02:46:08.959Z,4.75
2023-03-21T02:47:08.917Z,4.70
2023-03-21T02:48:14.557Z,4.67
2023-03-21T02:49:09.923Z,4.63
2023-03-21T02:50:08.863Z,4.60
2023-03-21T02:51:08.813Z,4.56
2023-03-21T02:52:17.001Z,4.56
2023-03-21T02:53:09.819Z,4.56
2023-03-21T02:54:47.299Z,4.59
2023-03-21T02:55:09.797Z,4.60
2023-03-21T02:56:08.758Z,4.63
2023-03-21T02:57:08.742Z,4.60
2023-03-21T02:58:13.185Z,4.60
2023-03-21T02:59:08.752Z,4.56
2023-03-21T03:00:16.274Z,4.56
2023-03-21T03:01:09.801Z,4.56
2023-03-21T03:02:08.685Z,4.59
2023-03-21T03:03:11.481Z,4.60
2023-03-21T03:04:08.714Z,4.62
2023-03-21T03:05:18.038Z,4.62
2023-03-21T03:06:08.647Z,4.63
2023-03-21T03:07:08.619Z,4.67
2023-03-21T03:08:08.609Z,4.71
2023-03-21T03:09:08.588Z,4.73
2023-03-21T03:10:08.574Z,4.73
2023-03-21T03:11:08.565Z,4.71
2023-03-21T03:12:08.556Z,4.71
2023-03-21T03:13:08.545Z,4.73
2023-03-21T03:14:32.182Z,4.73
2023-03-21T03:15:09.544Z,4.71
2023-03-21T03:16:08.558Z,4.77
2023-03-21T03:17:08.497Z,4.78
2023-03-21T03:18:08.473Z,4.77
2023-03-21T03:19:08.464Z,4.80
2023-03-21T03:20:16.234Z,4.80
2023-03-21T03:21:09.461Z,4.78
2023-03-21T03:22:08.446Z,4.75
2023-03-21T03:23:08.416Z,4.74
2023-03-21T03:24:08.400Z,4.75
2023-03-21T03:25:19.770Z,4.75
2023-03-21T03:26:09.405Z,4.75
2023-03-21T03:27:08.364Z,4.74
2023-03-21T03:28:08.345Z,4.77
2023-03-21T03:29:08.334Z,4.77
2023-03-21T03:30:08.330Z,4.80
2023-03-21T03:31:10.102Z,4.84
2023-03-21T03:32:08.361Z,4.80
2023-03-21T03:33:08.285Z,4.77
2023-03-21T03:34:08.274Z,4.75
2023-03-21T03:35:08.258Z,4.74
2023-03-21T03:36:10.896Z,4.74
2023-03-21T03:37:08.223Z,4.75
2023-03-21T03:38:08.248Z,4.75
2023-03-21T03:39:08.206Z,4.74
2023-03-21T03:40:08.204Z,4.74
2023-03-21T03:41:08.171Z,4.77
2023-03-21T03:42:21.781Z,4.78
2023-03-21T03:43:09.174Z,4.78
2023-03-21T03:44:08.133Z,4.77
2023-03-21T03:45:08.131Z,4.77
2023-03-21T03:46:08.173Z,4.75
2023-03-21T03:47:08.099Z,4.75
2023-03-21T03:48:08.146Z,4.75
2023-03-21T03:49:08.072Z,4.77
2023-03-21T03:50:08.067Z,4.80
2023-03-21T03:51:08.042Z,4.80
2023-03-21T03:52:08.043Z,4.86
2023-03-21T03:53:17.697Z,4.84
2023-03-21T03:54:09.071Z,4.87
2023-03-21T03:55:07.996Z,4.86
2023-03-21T03:56:07.985Z,4.84
2023-03-21T03:57:07.979Z,4.82
2023-03-21T03:58:19.672Z,4.82
2023-03-21T03:59:08.989Z,4.82
2023-03-21T04:00:07.928Z,4.86
2023-03-21T04:01:07.925Z,4.89
2023-03-21T04:02:08.030Z,4.89
2023-03-21T04:03:08.114Z,4.89
2023-03-21T04:04:13.376Z,4.90
2023-03-21T04:05:07.869Z,4.90
2023-03-21T04:06:07.852Z,4.93
2023-03-21T04:07:07.860Z,4.94
2023-03-21T04:08:07.830Z,4.99
2023-03-21T04:09:18.538Z,4.99
2023-03-21T04:10:08.865Z,5.00
2023-03-21T04:11:07.790Z,4.99
2023-03-21T04:12:07.788Z,5.04
2023-03-21T04:13:07.773Z,5.02
2023-03-21T04:14:07.767Z,5.02
2023-03-21T04:15:10.847Z,5.00
2023-03-21T04:16:07.775Z,4.96
2023-03-21T04:17:07.719Z,4.93
2023-03-21T04:18:07.702Z,4.92
2023-03-21T04:19:07.695Z,4.90
2023-03-21T04:20:12.136Z,4.93
2023-03-21T04:21:08.693Z,4.93
2023-03-21T04:22:07.686Z,4.90
2023-03-21T04:23:07.641Z,4.94
2023-03-21T04:24:07.640Z,4.97
2023-03-21T04:25:07.615Z,4.97
2023-03-21T04:26:07.618Z,4.99
2023-03-21T04:27:07.580Z,4.99
2023-03-21T04:28:07.575Z,4.99
2023-03-21T04:29:07.578Z,5.02
2023-03-21T04:30:07.557Z,5.04
2023-03-21T04:31:19.130Z,5.00
2023-03-21T04:32:08.592Z,4.99
2023-03-21T04:33:07.516Z,4.97
2023-03-21T04:34:07.499Z,4.94
2023-03-21T04:35:07.485Z,4.92
2023-03-21T04:36:07.497Z,4.89
2023-03-21T04:37:07.459Z,4.89
2023-03-21T04:38:07.448Z,4.89
2023-03-21T04:39:07.428Z,4.86
2023-03-21T04:40:07.435Z,4.82
2023-03-21T04:41:07.416Z,4.77
2023-03-21T04:42:07.410Z,4.77
2023-03-21T04:43:07.381Z,4.75
2023-03-21T04:44:07.363Z,4.75
2023-03-21T04:45:07.352Z,4.82
2023-03-21T04:46:07.431Z,4.84
2023-03-21T04:47:07.332Z,4.82
2023-03-21T04:48:07.597Z,4.82
2023-03-21T04:49:07.309Z,4.84
2023-03-21T04:50:07.290Z,4.86
2023-03-21T04:51:07.287Z,4.87
2023-03-21T04:52:07.257Z,4.86
2023-03-21T04:53:07.244Z,4.82
2023-03-21T04:54:44.457Z,4.78
2023-03-21T04:55:44.441Z,4.75
2023-03-21T04:56:44.432Z,4.74
2023-03-21T04:57:44.444Z,4.74
2023-03-21T04:58:44.395Z,4.73
2023-03-21T04:59:44.383Z,4.74
2023-03-21T05:00:44.406Z,4.74
2023-03-21T05:01:44.363Z,4.75
2023-03-21T05:02:44.347Z,4.75
2023-03-21T05:03:44.363Z,4.75
2023-03-21T05:04:44.338Z,4.77
2023-03-21T05:05:44.317Z,4.77
2023-03-21T05:06:44.297Z,4.74
2023-03-21T05:07:44.289Z,4.70
2023-03-21T05:08:44.266Z,4.68
2023-03-21T05:09:44.284Z,4.68
2023-03-21T05:10:44.247Z,4.66
2023-03-21T05:11:44.243Z,4.66
2023-03-21T05:12:44.224Z,4.66
2023-03-21T05:13:44.226Z,4.60
2023-03-21T05:14:44.190Z,4.60
2023-03-21T05:15:44.188Z,4.60
2023-03-21T05:16:44.201Z,4.59
2023-03-21T05:17:44.156Z,4.60
2023-03-21T05:18:44.137Z,4.62
2023-03-21T05:19:44.145Z,4.63
2023-03-21T05:20:44.121Z,4.63
2023-03-21T05:21:44.114Z,4.68
2023-03-21T05:22:44.094Z,4.70
2023-03-21T05:23:44.080Z,4.73
2023-03-21T05:24:44.075Z,4.75
2023-03-21T05:25:44.060Z,4.75
2023-03-21T05:26:44.053Z,4.71
2023-03-21T05:27:44.027Z,4.70
2023-03-21T05:28:44.020Z,4.70
2023-03-21T05:29:44.028Z,4.71
2023-03-21T05:30:44.001Z,4.74
2023-03-21T05:31:43.984Z,4.73
2023-03-21T05:32:43.960Z,4.74
2023-03-21T05:33:43.946Z,4.74
2023-03-21T05:34:43.949Z,4.74
2023-03-21T05:35:43.962Z,4.74
2023-03-21T05:36:43.931Z,4.77
2023-03-21T05:37:43.905Z,4.80
2023-03-21T05:38:43.894Z,4.82
2023-03-21T05:39:43.872Z,4.80
2023-03-21T05:40:43.865Z,4.80
2023-03-21T05:41:43.844Z,4.84
2023-03-21T05:42:43.833Z,4.86
2023-03-21T05:43:43.826Z,4.89
2023-03-21T05:44:43.805Z,4.93
2023-03-21T05:45:43.821Z,4.93
2023-03-21T05:46:43.781Z,4.93
2023-03-21T05:47:43.840Z,4.93
2023-03-21T05:48:43.779Z,4.94
2023-03-21T05:49:43.754Z,4.99
2023-03-21T05:50:43.742Z,5.00
2023-03-21T05:51:43.721Z,5.02
2023-03-21T05:52:43.704Z,5.08
2023-03-21T05:53:43.691Z,5.07
2023-03-21T05:54:43.684Z,5.00
2023-03-21T05:55:43.678Z,4.92
2023-03-21T05:56:43.667Z,4.89
2023-03-21T05:57:43.638Z,4.90
2023-03-21T05:58:43.625Z,4.92
2023-03-21T05:59:43.613Z,4.93
2023-03-21T06:00:43.610Z,4.93
2023-03-21T06:01:43.622Z,4.92
2023-03-21T06:02:43.640Z,4.96
2023-03-21T06:03:43.577Z,4.99
2023-03-21T06:04:43.560Z,5.00
2023-03-21T06:05:43.549Z,5.07
2023-03-21T06:06:43.532Z,5.05
2023-03-21T06:07:43.515Z,5.07
2023-03-21T06:08:43.508Z,5.04
2023-03-21T06:09:43.496Z,5.00
2023-03-21T06:10:43.481Z,5.00
2023-03-21T06:11:43.467Z,5.07
2023-03-21T06:12:43.449Z,5.10
2023-03-21T06:13:43.444Z,5.12
2023-03-21T06:14:43.425Z,5.17
2023-03-21T06:15:43.497Z,5.23
2023-03-21T06:16:43.404Z,5.26
2023-03-21T06:17:43.435Z,5.32
2023-03-21T06:18:43.379Z,5.38
2023-03-21T06:19:43.381Z,5.41
2023-03-21T06:20:43.358Z,5.46
2023-03-21T06:21:43.344Z,5.53
2023-03-21T06:22:43.334Z,5.61
2023-03-21T06:23:43.313Z,5.86
2023-03-21T06:24:43.294Z,6.36
2023-03-21T06:25:43.282Z,6.82
2023-03-21T06:26:43.274Z,7.14
2023-03-21T06:27:43.259Z,7.69
2023-03-21T06:28:43.252Z,8.24
2023-03-21T06:29:43.236Z,8.73
2023-03-21T06:30:43.220Z,9.19
2023-03-21T06:31:43.253Z,9.62
2023-03-21T06:32:43.206Z,10.10
2023-03-21T06:33:43.202Z,10.53
2023-03-21T06:34:43.166Z,10.92
2023-03-21T06:35:43.223Z,11.23
2023-03-21T06:36:43.140Z,11.36
2023-03-21T06:37:43.137Z,11.32
2023-03-21T06:38:43.121Z,11.62
2023-03-21T06:39:43.111Z,12.29
2023-03-21T06:40:43.095Z,12.91
2023-03-21T06:41:43.080Z,13.35
2023-03-21T06:42:43.072Z,13.59
2023-03-21T06:43:43.058Z,13.78
2023-03-21T06:44:43.054Z,13.83
2023-03-21T06:45:43.022Z,13.60
2023-03-21T06:46:43.094Z,13.57
2023-03-21T06:47:43.054Z,13.46
2023-03-21T06:48:42.994Z,13.57
2023-03-21T06:49:43.020Z,13.11
2023-03-21T06:50:42.968Z,13.19
2023-03-21T06:51:42.952Z,13.60
2023-03-21T06:52:42.952Z,13.71
2023-03-21T06:53:42.957Z,13.83
2023-03-21T06:54:42.921Z,14.12
2023-03-21T06:55:42.898Z,14.55
2023-03-21T06:56:42.887Z,14.97
2023-03-21T06:57:42.879Z,14.89
2023-03-21T06:58:42.858Z,15.04
2023-03-21T06:59:42.844Z,15.49
2023-03-21T07:00:42.882Z,15.88
2023-03-21T07:01:42.896Z,16.43
2023-03-21T07:02:42.865Z,16.81
2023-03-21T07:03:42.787Z,16.83
2023-03-21T07:04:42.791Z,17.04
2023-03-21T07:05:42.804Z,17.02
2023-03-21T07:06:42.758Z,17.19
2023-03-21T07:07:42.760Z,16.72
2023-03-21T07:08:42.744Z,15.43
2023-03-21T07:09:42.728Z,14.29
2023-03-21T07:10:44.965Z,13.78
2023-03-21T07:11:42.695Z,13.38
2023-03-21T07:12:42.694Z,13.08
2023-03-21T07:13:42.672Z,12.80
2023-03-21T07:14:42.653Z,12.54
2023-03-21T07:15:42.644Z,12.17
2023-03-21T07:16:42.670Z,11.90
2023-03-21T07:17:42.624Z,11.59
2023-03-21T07:18:42.623Z,11.37
2023-03-21T07:19:44.735Z,11.25
2023-03-21T07:20:42.584Z,11.18
2023-03-21T07:21:42.589Z,11.12
2023-03-21T07:22:42.546Z,10.97
2023-03-21T07:23:42.554Z,10.75
2023-03-21T07:24:42.534Z,11.07
2023-03-21T07:25:42.547Z,11.12
2023-03-21T07:26:42.517Z,11.02
2023-03-21T07:27:42.492Z,11.15
2023-03-21T07:28:42.481Z,11.37
2023-03-21T07:29:42.476Z,11.80
2023-03-21T07:30:42.484Z,11.95
2023-03-21T07:31:42.629Z,12.28
2023-03-21T07:32:42.431Z,12.87
2023-03-21T07:33:42.430Z,13.81
2023-03-21T07:34:42.408Z,13.78
2023-03-21T07:35:42.446Z,13.83
2023-03-21T07:36:42.387Z,14.11
2023-03-21T07:37:42.385Z,14.69
2023-03-21T07:38:42.353Z,15.33
2023-03-21T07:39:42.336Z,15.77
2023-03-21T07:40:42.327Z,16.05
2023-03-21T07:41:42.321Z,15.90
2023-03-21T07:42:42.305Z,15.83
2023-03-21T07:43:42.303Z,16.10
2023-03-21T07:44:42.294Z,16.24
2023-03-21T07:45:42.354Z,16.54
2023-03-21T07:46:42.252Z,16.57
2023-03-21T07:47:42.280Z,16.38
2023-03-21T07:48:42.240Z,16.05
2023-03-21T07:49:42.221Z,15.62
2023-03-21T07:50:42.203Z,15.39
2023-03-21T07:51:42.195Z,15.36
2023-03-21T07:52:42.182Z,15.22
2023-03-21T07:53:42.207Z,14.89
2023-03-21T07:54:42.143Z,14.53
2023-03-21T07:55:42.143Z,14.33
2023-03-21T07:56:42.117Z,14.12
2023-03-21T07:57:42.150Z,13.89
2023-03-21T07:58:42.104Z,13.83
2023-03-21T07:59:42.080Z,13.78
2023-03-21T08:00:42.083Z,13.75
2023-03-21T08:01:42.052Z,13.68
2023-03-21T08:02:42.065Z,13.62
2023-03-21T08:03:42.121Z,13.67
2023-03-21T08:04:42.029Z,13.60
2023-03-21T08:05:42.357Z,13.79
2023-03-21T08:06:42.021Z,13.96
2023-03-21T08:07:41.982Z,14.04
2023-03-21T08:08:41.976Z,14.23
2023-03-21T08:09:41.983Z,14.48
2023-03-21T08:10:41.964Z,14.69
2023-03-21T08:11:41.923Z,14.88
2023-03-21T08:12:41.908Z,14.96
2023-03-21T08:13:41.912Z,15.22
2023-03-21T08:14:41.882Z,15.44
2023-03-21T08:15:41.877Z,15.65
2023-03-21T08:16:41.915Z,15.65
2023-03-21T08:17:41.855Z,15.88
2023-03-21T08:18:41.849Z,16.51
2023-03-21T08:19:41.839Z,17.05
2023-03-21T08:20:41.835Z,17.31
2023-03-21T08:21:41.799Z,17.65
2023-03-21T08:22:41.781Z,17.80
2023-03-21T08:23:41.774Z,17.52
2023-03-21T08:24:41.772Z,17.51
2023-03-21T08:25:41.776Z,17.52
2023-03-21T08:26:41.741Z,17.36
2023-03-21T08:27:41.720Z,17.23
2023-03-21T08:28:41.721Z,16.64
2023-03-21T08:29:41.693Z,16.05
2023-03-21T08:30:41.710Z,16.01
2023-03-21T08:31:41.676Z,16.10
2023-03-21T08:32:41.657Z,15.55
2023-03-21T08:33:41.643Z,15.33
2023-03-21T08:34:41.632Z,15.22
2023-03-21T08:35:41.919Z,15.10
2023-03-21T08:36:41.604Z,14.89
2023-03-21T08:37:41.615Z,14.94
2023-03-21T08:38:41.578Z,14.78
2023-03-21T08:39:41.668Z,14.63
2023-03-21T08:40:41.556Z,14.70
2023-03-21T08:41:41.572Z,14.22
2023-03-21T08:42:41.546Z,13.79
2023-03-21T08:43:41.514Z,14.00
2023-03-21T08:44:41.502Z,14.07
2023-03-21T08:45:41.486Z,14.04
2023-03-21T08:46:41.535Z,14.26
2023-03-21T08:47:41.571Z,14.43
2023-03-21T08:48:41.462Z,14.58
2023-03-21T08:49:41.437Z,14.81
2023-03-21T08:50:41.430Z,15.02
2023-03-21T08:51:41.418Z,15.25
2023-03-21T08:52:41.403Z,15.17
2023-03-21T08:53:41.393Z,14.88
2023-03-21T08:54:41.378Z,14.84
2023-03-21T08:55:41.369Z,14.91
2023-03-21T08:56:41.350Z,15.02
2023-03-21T08:57:41.365Z,15.21
2023-03-21T08:58:41.320Z,15.33
2023-03-21T08:59:41.312Z,15.35
2023-03-21T09:00:41.314Z,15.64
2023-03-21T09:01:41.339Z,15.80
2023-03-21T09:02:41.276Z,16.04
2023-03-21T09:03:41.259Z,16.15
2023-03-21T09:04:41.332Z,16.13
2023-03-21T09:05:41.235Z,16.01
2023-03-21T09:06:41.247Z,15.76
2023-03-21T09:07:41.234Z,15.43
2023-03-21T09:08:41.196Z,15.25
2023-03-21T09:09:41.181Z,14.66
2023-03-21T09:10:41.172Z,14.28
2023-03-21T09:11:41.158Z,14.12
2023-03-21T09:12:41.145Z,14.35
2023-03-21T09:13:41.175Z,14.45
2023-03-21T09:14:41.133Z,14.40
2023-03-21T09:15:41.293Z,14.41
2023-03-21T09:16:41.114Z,14.35
2023-03-21T09:17:41.076Z,14.29
2023-03-21T09:18:41.077Z,14.20
2023-03-21T09:19:41.057Z,14.07
2023-03-21T09:20:41.052Z,13.86
2023-03-21T09:21:41.024Z,13.68
2023-03-21T09:22:42.765Z,13.70
2023-03-21T09:23:41.025Z,13.68
2023-03-21T09:24:40.998Z,13.75
2023-03-21T09:25:41.012Z,13.70
2023-03-21T09:26:40.974Z,13.65
2023-03-21T09:27:41.176Z,13.67
2023-03-21T09:28:40.967Z,13.60
2023-03-21T09:29:40.956Z,13.65
2023-03-21T09:30:40.931Z,13.72
2023-03-21T09:31:40.978Z,13.92
2023-03-21T09:32:40.888Z,13.95
2023-03-21T09:33:40.884Z,13.89
2023-03-21T09:34:40.880Z,13.97
2023-03-21T09:35:41.448Z,13.85
2023-03-21T09:36:40.844Z,13.57
2023-03-21T09:37:40.837Z,13.53
2023-03-21T09:38:40.812Z,13.50
2023-03-21T09:39:40.805Z,13.56
2023-03-21T09:40:40.800Z,13.67
2023-03-21T09:41:40.780Z,13.89
2023-03-21T09:42:40.804Z,14.10
2023-03-21T09:43:40.754Z,14.23
2023-03-21T09:44:40.753Z,14.14
2023-03-21T09:45:40.766Z,13.86
2023-03-21T09:46:40.736Z,13.44
2023-03-21T09:47:40.743Z,13.23
2023-03-21T09:48:50.633Z,13.20
2023-03-21T09:49:41.720Z,12.98
2023-03-21T09:50:40.660Z,12.94
2023-03-21T09:51:40.661Z,12.83
2023-03-21T09:52:40.640Z,12.75
2023-03-21T09:53:40.635Z,12.83
2023-03-21T09:54:40.643Z,12.86
2023-03-21T09:55:40.935Z,12.73
2023-03-21T09:56:40.682Z,12.67
2023-03-21T09:57:40.577Z,12.55
2023-03-21T09:58:40.550Z,12.45
2023-03-21T09:59:40.556Z,12.61
2023-03-21T10:00:40.619Z,12.78
2023-03-21T10:01:40.547Z,12.85
2023-03-21T10:02:40.514Z,12.94
2023-03-21T10:03:40.496Z,12.90
2023-03-21T10:04:40.513Z,12.85
2023-03-21T10:05:40.903Z,12.90
2023-03-21T10:06:40.822Z,13.04
2023-03-21T10:07:40.438Z,13.05
2023-03-21T10:08:40.423Z,13.08
2023-03-21T10:09:40.421Z,13.04
2023-03-21T10:10:40.710Z,13.00
2023-03-21T10:11:40.596Z,13.09
2023-03-21T10:12:40.381Z,13.16
2023-03-21T10:13:40.373Z,13.25
2023-03-21T10:14:40.364Z,13.42
2023-03-21T10:15:40.716Z,13.23
2023-03-21T10:16:40.380Z,13.25
2023-03-21T10:17:40.340Z,13.37
2023-03-21T10:18:40.310Z,13.44
2023-03-21T10:19:40.291Z,13.35
2023-03-21T10:20:40.556Z,13.44
2023-03-21T10:22:40.249Z,13.39
2023-03-21T10:23:40.238Z,13.44
2023-03-21T10:24:40.228Z,13.46
2023-03-21T10:25:40.620Z,13.47
2023-03-21T10:26:40.198Z,13.44
2023-03-21T10:27:40.180Z,13.41
2023-03-21T10:28:52.291Z,13.42
2023-03-21T10:29:41.298Z,13.31
2023-03-21T10:30:40.143Z,13.39
2023-03-21T10:31:40.192Z,13.41
2023-03-21T10:32:40.165Z,13.50
2023-03-21T10:33:40.140Z,13.57
2023-03-21T10:34:40.121Z,13.63
2023-03-21T10:35:40.628Z,13.68
2023-03-21T10:36:40.072Z,13.77
2023-03-21T10:37:40.091Z,13.77
2023-03-21T10:38:40.042Z,13.63
2023-03-21T10:39:40.051Z,13.57
2023-03-21T10:40:40.026Z,13.56
2023-03-21T10:41:40.002Z,13.31
2023-03-21T10:42:39.995Z,13.13
2023-03-21T10:43:40.009Z,13.16
2023-03-21T10:44:39.969Z,13.22
2023-03-21T10:45:40.471Z,13.28
2023-03-21T10:46:40.177Z,13.12
2023-03-21T10:47:40.328Z,13.18
2023-03-21T10:48:40.074Z,13.15
2023-03-21T10:50:05.699Z,13.30
2023-03-21T10:50:40.975Z,13.28
2023-03-21T10:51:39.886Z,13.35
2023-03-21T10:52:39.886Z,13.41
2023-03-21T10:53:39.885Z,13.56
2023-03-21T10:54:39.838Z,13.59
2023-03-21T10:55:40.246Z,13.56
2023-03-21T10:56:39.818Z,13.53
2023-03-21T10:57:39.813Z,13.49
2023-03-21T10:58:39.805Z,13.52
2023-03-21T10:59:39.783Z,13.53
2023-03-21T11:00:39.765Z,13.53
2023-03-21T11:01:39.886Z,13.62
2023-03-21T11:02:39.775Z,13.54
2023-03-21T11:03:39.734Z,13.47
2023-03-21T11:04:39.731Z,13.35
2023-03-21T11:05:40.013Z,13.27
2023-03-21T11:06:39.682Z,13.20
2023-03-21T11:07:39.671Z,13.09
2023-03-21T11:08:39.678Z,13.08
2023-03-21T11:09:39.646Z,13.11
2023-03-21T11:10:39.632Z,13.18
2023-03-21T11:11:39.638Z,13.18
2023-03-21T11:12:39.630Z,13.13
2023-03-21T11:13:39.617Z,13.15
2023-03-21T11:14:39.599Z,13.23
2023-03-21T11:15:39.966Z,13.13
2023-03-21T11:16:40.834Z,13.22
2023-03-21T11:17:39.563Z,13.19
2023-03-21T11:18:39.532Z,13.27
2023-03-21T11:19:39.527Z,13.23
2023-03-21T11:20:39.517Z,13.27
2023-03-21T11:21:39.523Z,13.30
2023-03-21T11:22:39.485Z,13.38
2023-03-21T11:23:39.485Z,13.42
2023-03-21T11:24:39.467Z,13.46
2023-03-21T11:25:39.833Z,13.49
2023-03-21T11:26:39.449Z,13.42
2023-03-21T11:27:39.424Z,13.35
2023-03-21T11:28:39.416Z,13.31
2023-03-21T11:29:39.403Z,13.38
2023-03-21T11:30:39.490Z,13.49
2023-03-21T11:31:39.373Z,13.47
2023-03-21T11:32:39.366Z,13.47
2023-03-21T11:33:39.366Z,13.30
2023-03-21T11:34:39.357Z,13.44
2023-03-21T11:35:39.599Z,13.53
2023-03-21T11:36:39.343Z,13.53
2023-03-21T11:37:39.337Z,13.62
2023-03-21T11:38:39.291Z,13.71
2023-03-21T11:39:39.284Z,13.83
2023-03-21T11:40:39.258Z,13.87
2023-03-21T11:41:39.253Z,13.93
2023-03-21T11:42:39.236Z,13.89
2023-03-21T11:43:39.227Z,13.85
2023-03-21T11:44:39.216Z,13.90
2023-03-21T11:45:39.422Z,13.93
2023-03-21T11:46:39.238Z,13.92
2023-03-21T11:47:39.200Z,13.97
2023-03-21T11:48:39.158Z,13.79
2023-03-21T11:49:39.142Z,13.81
2023-03-21T11:50:39.140Z,13.90
2023-03-21T11:51:39.129Z,13.97
2023-03-21T11:52:39.145Z,14.07
2023-03-21T11:53:39.123Z,14.04
2023-03-21T11:54:39.088Z,14.10
2023-03-21T11:55:39.490Z,13.95
2023-03-21T11:56:39.055Z,14.00
2023-03-21T11:57:39.053Z,14.07
2023-03-21T11:58:39.069Z,14.15
2023-03-21T11:59:39.017Z,14.11
2023-03-21T12:00:39.024Z,14.00
2023-03-21T12:01:39.001Z,14.18
2023-03-21T12:02:39.047Z,14.15
2023-03-21T12:03:47.545Z,14.18
2023-03-21T12:04:40.169Z,14.22
2023-03-21T12:05:39.218Z,14.12
2023-03-21T12:06:38.928Z,14.08
2023-03-21T12:07:38.918Z,14.11
2023-03-21T12:08:38.902Z,14.08
2023-03-21T12:09:38.913Z,14.05
2023-03-21T12:10:38.893Z,14.05
2023-03-21T12:11:38.874Z,14.11
2023-03-21T12:12:39.665Z,14.14
2023-03-21T12:13:38.837Z,14.15
2023-03-21T12:14:38.840Z,14.28
2023-03-21T12:15:39.231Z,14.37
2023-03-21T12:16:38.862Z,14.36
2023-03-21T12:17:38.792Z,14.28
2023-03-21T12:18:38.778Z,14.25
2023-03-21T12:19:38.770Z,14.43
2023-03-21T12:20:38.757Z,14.36
2023-03-21T12:21:38.745Z,14.29
2023-03-21T12:22:38.731Z,14.30
2023-03-21T12:23:38.779Z,14.43
2023-03-21T12:24:38.702Z,14.51
2023-03-21T12:25:39.322Z,14.48
2023-03-21T12:26:38.674Z,14.50
2023-03-21T12:27:38.692Z,14.55
2023-03-21T12:28:38.653Z,14.68
2023-03-21T12:29:38.645Z,14.88
2023-03-21T12:30:38.626Z,14.92
2023-03-21T12:31:38.703Z,15.00
2023-03-21T12:32:38.602Z,14.88
2023-03-21T12:33:38.589Z,14.85
2023-03-21T12:34:38.586Z,14.92
2023-03-21T12:35:39.025Z,14.94
2023-03-21T12:36:38.541Z,14.92
2023-03-21T12:37:38.585Z,14.94
2023-03-21T12:38:38.521Z,14.97
2023-03-21T12:39:38.510Z,15.15
2023-03-21T12:40:38.529Z,15.17
2023-03-21T12:41:38.608Z,15.27
2023-03-21T12:42:38.491Z,15.42
2023-03-21T12:43:38.459Z,15.51
2023-03-21T12:44:38.459Z,15.35
2023-03-21T12:45:46.504Z,15.35
2023-03-21T12:46:39.536Z,15.31
2023-03-21T12:47:38.423Z,15.14
2023-03-21T12:48:38.446Z,15.09
2023-03-21T12:49:38.394Z,15.14
2023-03-21T12:50:38.372Z,15.07
2023-03-21T12:51:38.374Z,15.17
2023-03-21T12:52:38.340Z,15.03
2023-03-21T12:53:38.331Z,14.88
2023-03-21T12:54:38.320Z,14.78
2023-03-21T12:55:38.538Z,14.73
2023-03-21T12:56:38.284Z,14.79
2023-03-21T12:57:44.623Z,14.82
2023-03-21T12:58:39.588Z,14.88
2023-03-21T12:59:38.258Z,14.94
2023-03-21T13:00:38.627Z,14.94
2023-03-21T13:01:38.224Z,14.99
2023-03-21T13:02:38.228Z,15.07
2023-03-21T13:03:40.514Z,15.11
2023-03-21T13:04:38.295Z,15.11
2023-03-21T13:05:38.177Z,14.97
2023-03-21T13:06:38.163Z,14.97
2023-03-21T13:07:38.144Z,14.97